Time;durP1;ratioP1;P1;durP2;ratioP2;P2;SDS_P1;SDS_P2;PMS_P1;PMS_P2;Temp;Humidity;BMP_temperature;BMP_pressure;BME280_temperature;BME280_humidity;BME280_pressure;Samples;Min_cycle;Max_cycle;Signal;HPM_P1;HPM_P2
2022/09/15 00:02:16;;;;;;;1.50;1.40;;;;;;;;;;5111445;28;20206;-73
2022/09/15 00:04:43;;;;;;;1.10;1.10;;;;;;;;;;5111493;28;20199;-73
2022/09/15 00:07:10;;;;;;;1.30;1.20;;;;;;;;;;5111152;28;20199;-72
2022/09/15 00:09:37;;;;;;;0.90;0.90;;;;;;;;;;5111190;28;20223;-72
2022/09/15 00:12:04;;;;;;;1.07;1.00;;;;;;;;;;5110870;28;20195;-72
2022/09/15 00:14:32;;;;;;;1.40;1.30;;;;;;;;;;5111083;28;20195;-73
2022/09/15 00:16:59;;;;;;;0.93;0.93;;;;;;;;;;5096322;28;20740;-73
2022/09/15 00:19:25;;;;;;;1.53;1.40;;;;;;;;;;5111093;28;20203;-73
2022/09/15 00:21:52;;;;;;;1.10;1.10;;;;;;;;;;5111034;28;20195;-73
2022/09/15 00:24:19;;;;;;;1.23;1.07;;;;;;;;;;5110892;27;20196;-73
2022/09/15 00:26:45;;;;;;;1.57;1.47;;;;;;;;;;5110360;28;20638;-73
2022/09/15 00:29:12;;;;;;;1.30;1.20;;;;;;;;;;5110879;28;20224;-73
2022/09/15 00:31:40;;;;;;;1.40;1.30;;;;;;;;;;5110711;28;20253;-73
2022/09/15 00:34:07;;;;;;;1.23;1.13;;;;;;;;;;5110891;28;20619;-72
2022/09/15 00:36:34;;;;;;;1.27;1.17;;;;;;;;;;5110857;28;20203;-72
2022/09/15 00:39:01;;;;;;;1.27;1.17;;;;;;;;;;5110683;28;20696;-73
2022/09/15 00:41:28;;;;;;;1.00;1.00;;;;;;;;;;5110453;28;20207;-72
2022/09/15 00:43:57;;;;;;;0.97;0.97;;;;;;;;;;5110727;28;20309;-73
2022/09/15 00:46:25;;;;;;;1.40;1.30;;;;;;;;;;5110859;28;20617;-73
2022/09/15 00:49:00;;;;;;;1.13;1.00;;;;;;;;;;5111211;28;20203;-73
2022/09/15 00:51:37;;;;;;;1.30;1.30;;;;;;;;;;5110436;28;20199;-73
2022/09/15 00:54:09;;;;;;;1.30;1.20;;;;;;;;;;5110171;28;20673;-73
2022/09/15 00:56:37;;;;;;;1.57;1.47;;;;;;;;;;5110439;28;20221;-73
2022/09/15 00:59:07;;;;;;;1.33;1.23;;;;;;;;;;5110629;28;20214;-73
2022/09/15 01:01:34;;;;;;;1.27;1.10;;;;;;;;;;5110462;28;20207;-73
2022/09/15 01:04:02;;;;;;;1.33;1.23;;;;;;;;;;5110746;28;20203;-73
2022/09/15 01:06:37;;;;;;;1.50;1.40;;;;;;;;;;5110225;28;20713;-73
2022/09/15 01:09:08;;;;;;;1.07;1.07;;;;;;;;;;5110402;28;20609;-73
2022/09/15 01:11:35;;;;;;;0.93;0.93;;;;;;;;;;5110620;28;20211;-72
2022/09/15 01:14:03;;;;;;;1.97;1.33;;;;;;;;;;5110487;28;20203;-73
2022/09/15 01:16:39;;;;;;;2.00;1.50;;;;;;;;;;5095786;28;20236;-73
2022/09/15 01:19:22;;;;;;;1.57;1.30;;;;;;;;;;5109320;28;20216;-73
2022/09/15 01:21:52;;;;;;;1.10;1.10;;;;;;;;;;5110488;28;20590;-72
2022/09/15 01:24:44;;;;;;;1.33;1.27;;;;;;;;;;5110292;28;20200;-73
2022/09/15 01:27:37;;;;;;;1.00;1.00;;;;;;;;;;5110147;28;20659;-72
2022/09/15 01:30:11;;;;;;;1.07;1.07;;;;;;;;;;5110492;28;20234;-73
2022/09/15 01:33:05;;;;;;;1.60;1.50;;;;;;;;;;5110043;28;20195;-73
2022/09/15 01:35:44;;;;;;;1.60;1.50;;;;;;;;;;5108821;28;20210;-73
2022/09/15 01:38:17;;;;;;;1.60;1.47;;;;;;;;;;5111105;28;20634;-73
2022/09/15 01:40:48;;;;;;;1.63;1.43;;;;;;;;;;5114529;28;20192;-72
2022/09/15 01:43:16;;;;;;;1.50;1.40;;;;;;;;;;5113790;28;20254;-73
2022/09/15 01:45:45;;;;;;;1.10;1.10;;;;;;;;;;5113936;28;20199;-73
2022/09/15 01:48:12;;;;;;;1.30;1.20;;;;;;;;;;5113507;28;20212;-73
2022/09/15 01:50:49;;;;;;;1.30;1.20;;;;;;;;;;5113864;28;20740;-73
2022/09/15 01:53:18;;;;;;;1.40;1.30;;;;;;;;;;5113637;28;20199;-73
2022/09/15 01:55:49;;;;;;;1.13;1.03;;;;;;;;;;5113502;28;20196;-73
2022/09/15 01:58:15;;;;;;;1.27;1.17;;;;;;;;;;5113706;28;20621;-73
2022/09/15 02:00:47;;;;;;;1.40;1.33;;;;;;;;;;5113521;28;20210;-73
2022/09/15 02:03:19;;;;;;;1.40;1.30;;;;;;;;;;5113623;27;20198;-73
2022/09/15 02:05:50;;;;;;;0.97;0.97;;;;;;;;;;5104989;28;20204;-74
2022/09/15 02:08:23;;;;;;;1.20;1.20;;;;;;;;;;5105389;28;20210;-73
2022/09/15 02:10:56;;;;;;;1.00;1.00;;;;;;;;;;5108762;28;20647;-73
2022/09/15 02:13:30;;;;;;;1.17;1.17;;;;;;;;;;5092538;28;21058;-73
2022/09/15 02:16:00;;;;;;;2.53;1.40;;;;;;;;;;5092949;28;20250;-73
2022/09/15 02:18:33;;;;;;;1.50;1.40;;;;;;;;;;5094197;28;20199;-73
2022/09/15 02:21:08;;;;;;;1.40;1.30;;;;;;;;;;5113341;28;20214;-73
2022/09/15 02:23:37;;;;;;;1.13;1.13;;;;;;;;;;5113193;28;20229;-73
2022/09/15 02:26:08;;;;;;;1.13;1.13;;;;;;;;;;5112979;28;20745;-72
2022/09/15 02:28:37;;;;;;;1.00;1.00;;;;;;;;;;5113114;28;20234;-72
2022/09/15 02:31:08;;;;;;;1.47;1.43;;;;;;;;;;5113027;28;20308;-72
2022/09/15 02:33:37;;;;;;;1.40;1.30;;;;;;;;;;5112932;28;20207;-72
2022/09/15 02:36:04;;;;;;;1.07;1.07;;;;;;;;;;5103110;28;20212;-72
2022/09/15 02:38:35;;;;;;;1.27;1.17;;;;;;;;;;5113100;28;20211;-73
2022/09/15 02:41:02;;;;;;;1.37;1.00;;;;;;;;;;5097262;28;20195;-73
2022/09/15 02:43:30;;;;;;;2.37;1.93;;;;;;;;;;5112643;28;20202;-72
2022/09/15 02:45:56;;;;;;;1.10;1.10;;;;;;;;;;5112724;28;20592;-73
2022/09/15 02:48:25;;;;;;;1.70;1.60;;;;;;;;;;5112551;28;20206;-72
2022/09/15 02:50:52;;;;;;;1.50;1.40;;;;;;;;;;5104563;28;20250;-74
2022/09/15 02:53:18;;;;;;;1.50;1.40;;;;;;;;;;5104565;28;20250;-75
2022/09/15 02:55:45;;;;;;;1.37;1.10;;;;;;;;;;5111636;28;20247;-76
2022/09/15 02:58:12;;;;;;;1.20;1.20;;;;;;;;;;5111293;28;20200;-75
2022/09/15 03:00:39;;;;;;;0.90;0.90;;;;;;;;;;5112230;28;20210;-75
2022/09/15 03:03:06;;;;;;;1.20;1.20;;;;;;;;;;5111839;28;20570;-74
2022/09/15 03:05:34;;;;;;;1.43;1.33;;;;;;;;;;5112052;28;20208;-74
2022/09/15 03:08:01;;;;;;;1.53;1.43;;;;;;;;;;5111957;28;20202;-74
2022/09/15 03:10:27;;;;;;;1.77;1.67;;;;;;;;;;5111774;28;20231;-74
2022/09/15 03:12:55;;;;;;;1.77;1.67;;;;;;;;;;5111903;28;20693;-74
2022/09/15 03:15:23;;;;;;;1.30;1.30;;;;;;;;;;5105270;28;20206;-75
2022/09/15 03:17:51;;;;;;;1.20;1.20;;;;;;;;;;5104519;28;20238;-75
2022/09/15 03:20:20;;;;;;;1.57;1.47;;;;;;;;;;5109423;28;20199;-76
2022/09/15 03:22:49;;;;;;;1.33;1.30;;;;;;;;;;5103588;28;20248;-75
2022/09/15 03:25:16;;;;;;;1.33;1.23;;;;;;;;;;5112024;28;20289;-75
2022/09/15 03:27:43;;;;;;;0.93;0.93;;;;;;;;;;5111514;28;20207;-75
2022/09/15 03:30:10;;;;;;;1.43;1.33;;;;;;;;;;5111624;28;20233;-76
2022/09/15 03:32:37;;;;;;;1.60;1.50;;;;;;;;;;5111154;28;20210;-75
2022/09/15 03:35:05;;;;;;;1.10;1.10;;;;;;;;;;5111450;28;20206;-75
2022/09/15 03:37:32;;;;;;;1.40;1.30;;;;;;;;;;5111387;27;20569;-74
2022/09/15 03:40:02;;;;;;;8.93;2.03;;;;;;;;;;5111558;28;20196;-75
2022/09/15 03:42:29;;;;;;;1.37;1.30;;;;;;;;;;5110811;28;20199;-74
2022/09/15 03:44:56;;;;;;;1.43;1.33;;;;;;;;;;5111208;28;20720;-76
2022/09/15 03:47:22;;;;;;;1.37;1.30;;;;;;;;;;5110886;28;20198;-75
2022/09/15 03:49:49;;;;;;;1.40;1.30;;;;;;;;;;5103944;28;20204;-76
2022/09/15 03:52:16;;;;;;;1.23;1.23;;;;;;;;;;5106342;28;20213;-75
2022/09/15 03:54:43;;;;;;;1.23;1.17;;;;;;;;;;5111196;28;20196;-75
2022/09/15 03:57:11;;;;;;;1.20;1.20;;;;;;;;;;5111699;28;20202;-75
2022/09/15 03:59:37;;;;;;;1.57;1.40;;;;;;;;;;5111460;28;20215;-75
2022/09/15 04:02:04;;;;;;;1.50;1.23;;;;;;;;;;5110475;28;20215;-75
2022/09/15 04:04:31;;;;;;;1.30;1.20;;;;;;;;;;5111206;28;20196;-75
2022/09/15 04:06:58;;;;;;;1.37;1.27;;;;;;;;;;5111045;28;20210;-74
2022/09/15 04:09:25;;;;;;;0.97;0.97;;;;;;;;;;5109741;28;20191;-75
2022/09/15 04:11:52;;;;;;;1.43;1.40;;;;;;;;;;5098322;28;20366;-74
2022/09/15 04:14:20;;;;;;;1.70;1.47;;;;;;;;;;5106699;28;20693;-77
2022/09/15 04:16:46;;;;;;;1.03;1.03;;;;;;;;;;5096992;28;20234;-77
2022/09/15 04:19:13;;;;;;;1.50;1.40;;;;;;;;;;5110746;28;20677;-78
2022/09/15 04:21:40;;;;;;;1.30;1.20;;;;;;;;;;5110969;28;20200;-77
2022/09/15 04:24:07;;;;;;;1.40;1.30;;;;;;;;;;5111392;28;20211;-77
2022/09/15 04:26:36;;;;;;;1.23;1.23;;;;;;;;;;5110989;28;20231;-77
2022/09/15 04:29:05;;;;;;;1.10;1.10;;;;;;;;;;5104697;28;20204;-77
2022/09/15 04:31:33;;;;;;;1.57;1.47;;;;;;;;;;5104442;28;20655;-78
2022/09/15 04:34:00;;;;;;;1.37;1.23;;;;;;;;;;5109777;28;20207;-78
2022/09/15 04:36:28;;;;;;;1.30;1.20;;;;;;;;;;5109106;28;20203;-77
2022/09/15 04:38:56;;;;;;;1.37;1.30;;;;;;;;;;5110895;28;20754;-77
2022/09/15 04:41:23;;;;;;;1.60;1.50;;;;;;;;;;5110590;28;20199;-76
2022/09/15 04:43:50;;;;;;;1.13;1.13;;;;;;;;;;5111126;28;20202;-78
2022/09/15 04:46:17;;;;;;;1.00;1.00;;;;;;;;;;5110831;28;20203;-78
2022/09/15 04:48:47;;;;;;;1.10;1.10;;;;;;;;;;5110964;28;20734;-77
2022/09/15 04:51:16;;;;;;;1.50;1.40;;;;;;;;;;5110819;28;20736;-77
2022/09/15 04:53:43;;;;;;;1.50;1.40;;;;;;;;;;5110629;28;20207;-77
2022/09/15 04:56:11;;;;;;;1.07;1.07;;;;;;;;;;5111067;28;20290;-78
2022/09/15 04:58:38;;;;;;;1.27;1.17;;;;;;;;;;5110663;28;20265;-78
2022/09/15 05:01:10;;;;;;;1.43;1.33;;;;;;;;;;5111156;28;20264;-78
2022/09/15 05:03:37;;;;;;;1.10;1.10;;;;;;;;;;5110854;28;20200;-78
2022/09/15 05:06:07;;;;;;;1.07;1.00;;;;;;;;;;5110514;28;20199;-78
2022/09/15 05:08:34;;;;;;;1.73;1.60;;;;;;;;;;5110714;28;20260;-78
2022/09/15 05:11:02;;;;;;;1.30;1.20;;;;;;;;;;5110819;28;20253;-78
2022/09/15 05:13:29;;;;;;;1.17;1.17;;;;;;;;;;5111870;28;20674;-78
2022/09/15 05:15:55;;;;;;;1.40;1.30;;;;;;;;;;5103500;28;20227;-78
2022/09/15 05:18:22;;;;;;;1.97;1.50;;;;;;;;;;5111897;28;20245;-77
2022/09/15 05:20:49;;;;;;;1.40;1.33;;;;;;;;;;5114279;28;20210;-78
2022/09/15 05:23:18;;;;;;;1.20;1.20;;;;;;;;;;5114607;28;20560;-78
2022/09/15 05:25:54;;;;;;;1.37;1.30;;;;;;;;;;5114713;28;20674;-79
2022/09/15 05:28:21;;;;;;;1.17;1.10;;;;;;;;;;5114445;28;20705;-78
2022/09/15 05:30:48;;;;;;;0.90;0.90;;;;;;;;;;5114388;28;20227;-78
2022/09/15 05:33:17;;;;;;;1.17;1.17;;;;;;;;;;5114608;27;20272;-78
2022/09/15 05:35:50;;;;;;;1.30;1.30;;;;;;;;;;5114591;28;20267;-77
2022/09/15 05:38:18;;;;;;;1.73;1.63;;;;;;;;;;5114563;28;20210;-78
2022/09/15 05:40:45;;;;;;;1.30;1.20;;;;;;;;;;5114328;28;20199;-77
2022/09/15 05:43:12;;;;;;;1.20;1.03;;;;;;;;;;5114021;28;20258;-77
2022/09/15 05:45:41;;;;;;;1.53;1.43;;;;;;;;;;5114047;28;20199;-78
2022/09/15 05:48:08;;;;;;;1.67;1.47;;;;;;;;;;5114091;28;20286;-77
2022/09/15 05:50:35;;;;;;;1.20;1.20;;;;;;;;;;5114367;28;20199;-77
2022/09/15 05:53:02;;;;;;;1.80;1.70;;;;;;;;;;5114063;28;20763;-77
2022/09/15 05:55:30;;;;;;;1.40;1.30;;;;;;;;;;5113689;28;20665;-78
2022/09/15 05:57:57;;;;;;;1.10;1.10;;;;;;;;;;5114053;28;20207;-77
2022/09/15 06:00:24;;;;;;;1.30;1.20;;;;;;;;;;5114148;28;20196;-77
2022/09/15 06:02:52;;;;;;;1.20;1.20;;;;;;;;;;5113554;28;20278;-78
2022/09/15 06:05:19;;;;;;;1.20;1.10;;;;;;;;;;5113904;28;20207;-78
2022/09/15 06:07:46;;;;;;;1.10;1.10;;;;;;;;;;5113764;27;20277;-78
2022/09/15 06:10:13;;;;;;;2.67;2.33;;;;;;;;;;5114137;28;20231;-77
2022/09/15 06:12:41;;;;;;;1.20;1.20;;;;;;;;;;5113390;28;20230;-78
2022/09/15 06:15:09;;;;;;;1.37;1.27;;;;;;;;;;5113826;28;20731;-77
2022/09/15 06:17:35;;;;;;;1.10;1.10;;;;;;;;;;5113519;28;20219;-78
2022/09/15 06:20:05;;;;;;;1.53;1.43;;;;;;;;;;5113298;28;20195;-77
2022/09/15 06:22:32;;;;;;;4.30;1.50;;;;;;;;;;5113447;28;20233;-77
2022/09/15 06:24:59;;;;;;;1.60;1.50;;;;;;;;;;5112287;28;20287;-77
2022/09/15 06:27:25;;;;;;;1.53;1.43;;;;;;;;;;5113018;27;20288;-78
2022/09/15 06:29:53;;;;;;;1.70;1.60;;;;;;;;;;5113213;28;20718;-78
2022/09/15 06:32:20;;;;;;;1.37;1.27;;;;;;;;;;5099431;28;20265;-78
2022/09/15 06:34:47;;;;;;;2.13;1.93;;;;;;;;;;5113492;28;20207;-77
2022/09/15 06:37:14;;;;;;;1.60;1.50;;;;;;;;;;5113169;28;20200;-77
2022/09/15 06:39:42;;;;;;;1.37;1.27;;;;;;;;;;5113136;28;20214;-78
2022/09/15 06:42:09;;;;;;;2.83;1.40;;;;;;;;;;5112835;28;20286;-78
2022/09/15 06:44:36;;;;;;;1.33;1.23;;;;;;;;;;5113163;28;20199;-78
2022/09/15 06:47:04;;;;;;;1.30;1.20;;;;;;;;;;5112885;28;20272;-77
2022/09/15 06:49:31;;;;;;;1.50;1.23;;;;;;;;;;5113269;28;20210;-77
2022/09/15 06:52:00;;;;;;;1.80;1.57;;;;;;;;;;5112853;28;20238;-78
2022/09/15 06:54:27;;;;;;;1.40;1.30;;;;;;;;;;5112704;28;20639;-78
2022/09/15 06:56:54;;;;;;;1.13;1.03;;;;;;;;;;5113138;28;20218;-77
2022/09/15 06:59:22;;;;;;;1.33;1.23;;;;;;;;;;5112646;28;20203;-78
2022/09/15 07:01:52;;;;;;;1.53;1.43;;;;;;;;;;5112734;28;20603;-78
2022/09/15 07:04:20;;;;;;;1.47;1.37;;;;;;;;;;5112897;28;20200;-78
2022/09/15 07:06:47;;;;;;;2.97;1.20;;;;;;;;;;5112327;27;20638;-77
2022/09/15 07:09:14;;;;;;;1.43;1.33;;;;;;;;;;5112940;28;20681;-78
2022/09/15 07:11:41;;;;;;;1.40;1.30;;;;;;;;;;5112441;28;20732;-77
2022/09/15 07:14:08;;;;;;;1.20;1.20;;;;;;;;;;5112431;27;20237;-78
2022/09/15 07:16:34;;;;;;;1.20;1.20;;;;;;;;;;5112033;28;20242;-77
2022/09/15 07:19:02;;;;;;;1.00;1.00;;;;;;;;;;5112595;28;20195;-77
2022/09/15 07:21:30;;;;;;;0.90;0.90;;;;;;;;;;5112309;28;20227;-78
2022/09/15 07:23:57;;;;;;;1.30;1.20;;;;;;;;;;5112474;28;20214;-78
2022/09/15 07:26:26;;;;;;;1.10;1.10;;;;;;;;;;5112282;28;20215;-78
2022/09/15 07:28:55;;;;;;;1.10;1.10;;;;;;;;;;5111838;28;20564;-78
2022/09/15 07:31:24;;;;;;;0.90;0.90;;;;;;;;;;5112228;28;20233;-78
2022/09/15 07:33:51;;;;;;;0.97;0.97;;;;;;;;;;5112160;28;20199;-79
2022/09/15 07:36:18;;;;;;;2.00;1.70;;;;;;;;;;5111558;28;20203;-78
2022/09/15 07:38:47;;;;;;;1.30;1.30;;;;;;;;;;5112084;28;20203;-77
2022/09/15 07:41:15;;;;;;;1.07;1.07;;;;;;;;;;5111875;28;20227;-77
2022/09/15 07:43:46;;;;;;;1.07;0.97;;;;;;;;;;5111825;28;20195;-78
2022/09/15 07:46:13;;;;;;;1.37;1.27;;;;;;;;;;5111800;28;20276;-78
2022/09/15 07:48:39;;;;;;;2.00;1.90;;;;;;;;;;5111527;28;20705;-78
2022/09/15 07:51:06;;;;;;;1.50;1.40;;;;;;;;;;5111543;28;20203;-78
2022/09/15 07:53:33;;;;;;;3.17;1.60;;;;;;;;;;5111610;28;20200;-78
2022/09/15 07:56:01;;;;;;;1.77;1.60;;;;;;;;;;5111541;28;20200;-78
2022/09/15 07:58:28;;;;;;;1.93;1.53;;;;;;;;;;5111559;28;20682;-78
2022/09/15 08:00:55;;;;;;;1.73;1.55;;;;;;;;;;5111542;28;20672;-78
2022/09/15 08:03:21;;;;;;;1.42;1.33;;;;;;;;;;5111600;28;20700;-78
2022/09/15 08:05:48;;;;;;;1.45;1.35;;;;;;;;;;5111558;28;20214;-78
2022/09/15 08:08:15;;;;;;;1.45;1.35;;;;;;;;;;5111859;28;20286;-77
2022/09/15 08:10:42;;;;;;;1.38;1.20;;;;;;;;;;5111343;28;20689;-79
2022/09/15 08:13:10;;;;;;;1.80;1.70;;;;;;;;;;5111254;28;20223;-77
2022/09/15 08:15:37;;;;;;;1.20;1.20;;;;;;;;;;5102503;28;20663;-77
2022/09/15 08:18:05;;;;;;;1.08;1.08;;;;;;;;;;5105583;28;20729;-78
2022/09/15 08:20:32;;;;;;;1.33;1.33;;;;;;;;;;5111816;28;20199;-77
2022/09/15 08:22:59;;;;;;;1.13;1.13;;;;;;;;;;5110972;28;20226;-78
2022/09/15 08:25:26;;;;;;;1.08;1.05;;;;;;;;;;5111269;28;20730;-77
2022/09/15 08:27:53;;;;;;;2.28;1.63;;;;;;;;;;5111326;28;20283;-78
2022/09/15 08:30:21;;;;;;;2.25;2.05;;;;;;;;;;5110908;28;20704;-78
2022/09/15 08:32:48;;;;;;;2.20;1.58;;;;;;;;;;5110946;28;20835;-77
2022/09/15 08:35:16;;;;;;;2.28;1.60;;;;;;;;;;5111086;28;20203;-77
2022/09/15 08:37:43;;;;;;;1.63;1.52;;;;;;;;;;5110752;28;20199;-78
2022/09/15 08:40:16;;;;;;;2.47;2.05;;;;;;;;;;5110956;28;20632;-77
2022/09/15 08:42:42;;;;;;;1.58;1.48;;;;;;;;;;5110992;28;20208;-77
2022/09/15 08:45:18;;;;;;;1.52;1.42;;;;;;;;;;5110870;28;20200;-78
2022/09/15 08:47:54;;;;;;;2.13;2.03;;;;;;;;;;5111099;28;20195;-77
2022/09/15 08:50:26;;;;;;;3.50;2.67;;;;;;;;;;5115118;28;20661;-77
2022/09/15 08:52:56;;;;;;;2.33;2.20;;;;;;;;;;5115323;28;20226;-77
2022/09/15 08:55:33;;;;;;;3.17;2.30;;;;;;;;;;5115110;28;20199;-78
2022/09/15 08:58:00;;;;;;;2.33;2.22;;;;;;;;;;5115072;28;20203;-77
2022/09/15 09:00:27;;;;;;;2.45;2.22;;;;;;;;;;5115221;28;20203;-77
2022/09/15 09:03:15;;;;;;;2.28;2.17;;;;;;;;;;5114708;28;20196;-77
2022/09/15 09:05:50;;;;;;;3.67;3.38;;;;;;;;;;5114795;28;20207;-77
2022/09/15 09:08:39;;;;;;;2.38;2.28;;;;;;;;;;5115245;28;20210;-77
2022/09/15 09:11:13;;;;;;;2.17;1.65;;;;;;;;;;5114788;28;20218;-77
2022/09/15 09:13:45;;;;;;;2.70;2.50;;;;;;;;;;5114761;28;20229;-77
2022/09/15 09:16:33;;;;;;;2.13;2.00;;;;;;;;;;5100696;28;20235;-78
2022/09/15 09:19:14;;;;;;;4.35;2.63;;;;;;;;;;5103261;28;20223;-78
2022/09/15 09:21:43;;;;;;;2.47;2.28;;;;;;;;;;5114542;28;20199;-77
2022/09/15 09:24:15;;;;;;;2.03;1.92;;;;;;;;;;5114644;27;20587;-77
2022/09/15 09:26:42;;;;;;;2.35;2.15;;;;;;;;;;5114213;27;20272;-77
2022/09/15 09:29:12;;;;;;;2.20;2.10;;;;;;;;;;5114328;28;20597;-77
2022/09/15 09:31:40;;;;;;;1.90;1.80;;;;;;;;;;5114505;28;20264;-77
2022/09/15 09:34:15;;;;;;;2.75;2.30;;;;;;;;;;5114597;28;20218;-77
2022/09/15 09:36:42;;;;;;;2.55;2.35;;;;;;;;;;5114275;28;20252;-78
2022/09/15 09:39:12;;;;;;;1.40;1.30;;;;;;;;;;5114300;28;20732;-77
2022/09/15 09:41:40;;;;;;;2.15;1.70;;;;;;;;;;5113974;28;20237;-77
2022/09/15 09:44:11;;;;;;;2.40;2.20;;;;;;;;;;5114168;28;20241;-77
2022/09/15 09:46:37;;;;;;;1.42;1.33;;;;;;;;;;5114008;28;20678;-78
2022/09/15 09:49:06;;;;;;;1.30;1.20;;;;;;;;;;5113973;28;20588;-77
2022/09/15 09:51:38;;;;;;;1.70;1.60;;;;;;;;;;5113505;28;20211;-78
2022/09/15 09:54:11;;;;;;;3.22;1.60;;;;;;;;;;5114082;28;20223;-77
2022/09/15 09:56:38;;;;;;;12.60;1.60;;;;;;;;;;5113862;28;20204;-78
2022/09/15 09:59:05;;;;;;;1.42;1.33;;;;;;;;;;5114019;28;20673;-77
2022/09/15 10:01:33;;;;;;;1.00;1.00;;;;;;;;;;5113692;28;20195;-77
2022/09/15 10:04:12;;;;;;;1.38;1.27;;;;;;;;;;5113855;28;20199;-77
2022/09/15 10:06:41;;;;;;;1.08;1.08;;;;;;;;;;5113922;28;20294;-77
2022/09/15 10:09:10;;;;;;;1.50;1.42;;;;;;;;;;5113640;28;20249;-78
2022/09/15 10:11:42;;;;;;;1.00;1.00;;;;;;;;;;5113674;27;20207;-77
2022/09/15 10:14:17;;;;;;;1.10;1.10;;;;;;;;;;5113498;28;20223;-78
2022/09/15 10:16:44;;;;;;;2.53;1.98;;;;;;;;;;5098891;28;20577;-77
2022/09/15 10:19:12;;;;;;;1.17;1.17;;;;;;;;;;5113471;28;20580;-77
2022/09/15 10:21:41;;;;;;;1.10;1.10;;;;;;;;;;5113418;28;20207;-77
2022/09/15 10:24:33;;;;;;;1.30;1.20;;;;;;;;;;5113148;28;20581;-77
2022/09/15 10:27:17;;;;;;;1.20;1.20;;;;;;;;;;5113313;28;20218;-77
2022/09/15 10:29:45;;;;;;;1.38;1.27;;;;;;;;;;5112294;28;20195;-77
2022/09/15 10:32:17;;;;;;;4.55;1.25;;;;;;;;;;5113153;28;20192;-77
2022/09/15 10:34:43;;;;;;;1.13;0.90;;;;;;;;;;5113139;28;20211;-77
2022/09/15 10:37:23;;;;;;;1.30;1.20;;;;;;;;;;5112805;28;20203;-77
2022/09/15 10:39:53;;;;;;;1.17;1.17;;;;;;;;;;5112965;28;20615;-77
2022/09/15 10:42:31;;;;;;;1.42;1.33;;;;;;;;;;5113353;28;20564;-78
2022/09/15 10:45:07;;;;;;;1.08;1.08;;;;;;;;;;5112777;28;20737;-77
2022/09/15 10:47:42;;;;;;;1.10;1.00;;;;;;;;;;5112720;28;20221;-77
2022/09/15 10:50:14;;;;;;;1.08;1.08;;;;;;;;;;5112524;28;20702;-77
2022/09/15 10:53:01;;;;;;;1.38;1.30;;;;;;;;;;5112272;28;20219;-77
2022/09/15 10:55:40;;;;;;;1.35;1.35;;;;;;;;;;5112730;28;20570;-77
2022/09/15 10:58:23;;;;;;;1.50;1.40;;;;;;;;;;5112911;28;20282;-77
2022/09/15 11:00:57;;;;;;;1.25;1.20;;;;;;;;;;5112922;28;20200;-77
2022/09/15 11:03:35;;;;;;;2.33;1.15;;;;;;;;;;5112477;28;20234;-78
2022/09/15 11:06:12;;;;;;;1.00;1.00;;;;;;;;;;5112408;28;20728;-77
2022/09/15 11:08:50;;;;;;;1.10;1.10;;;;;;;;;;5112481;28;20741;-77
2022/09/15 11:11:22;;;;;;;0.90;0.85;;;;;;;;;;5111394;27;20207;-77
2022/09/15 11:14:00;;;;;;;0.90;0.90;;;;;;;;;;5112258;28;20234;-77
2022/09/15 11:16:39;;;;;;;1.42;1.33;;;;;;;;;;5112293;28;20234;-77
2022/09/15 11:19:25;;;;;;;1.65;1.58;;;;;;;;;;5112214;28;20244;-77
2022/09/15 11:21:54;;;;;;;0.90;0.90;;;;;;;;;;5111891;28;20198;-77
2022/09/15 11:24:28;;;;;;;1.10;1.10;;;;;;;;;;5112154;28;20669;-77
2022/09/15 11:26:58;;;;;;;1.58;1.48;;;;;;;;;;5112050;28;20195;-80
2022/09/15 11:29:28;;;;;;;0.90;0.90;;;;;;;;;;5112117;28;20290;-77
2022/09/15 11:31:58;;;;;;;0.90;0.90;;;;;;;;;;5111700;28;20211;-77
2022/09/15 11:34:27;;;;;;;1.00;0.90;;;;;;;;;;5111676;28;20709;-77
2022/09/15 11:36:56;;;;;;;1.42;1.33;;;;;;;;;;5111760;28;20199;-77
2022/09/15 11:39:27;;;;;;;1.30;1.20;;;;;;;;;;5112543;28;20207;-77
2022/09/15 11:41:59;;;;;;;1.08;1.00;;;;;;;;;;5112167;28;20234;-77
2022/09/15 11:44:30;;;;;;;1.33;1.20;;;;;;;;;;5111706;28;20199;-77
2022/09/15 11:47:07;;;;;;;1.05;1.05;;;;;;;;;;5111424;28;20203;-78
2022/09/15 11:49:39;;;;;;;0.93;0.93;;;;;;;;;;5112011;28;20238;-77
2022/09/15 11:52:13;;;;;;;0.90;0.90;;;;;;;;;;5111552;28;20223;-77
2022/09/15 11:54:49;;;;;;;2.03;1.20;;;;;;;;;;5111159;28;20624;-78
2022/09/15 11:57:18;;;;;;;1.00;1.00;;;;;;;;;;5111379;28;20731;-78
2022/09/15 11:59:51;;;;;;;1.60;1.45;;;;;;;;;;5112064;28;20199;-77
2022/09/15 12:02:22;;;;;;;1.40;1.30;;;;;;;;;;5110983;28;20264;-77
2022/09/15 12:05:00;;;;;;;1.30;1.20;;;;;;;;;;5111859;28;20199;-77
2022/09/15 12:07:31;;;;;;;1.05;0.95;;;;;;;;;;5110968;28;20211;-77
2022/09/15 12:10:05;;;;;;;0.77;0.77;;;;;;;;;;5111664;28;20200;-79
2022/09/15 12:12:34;;;;;;;0.90;0.90;;;;;;;;;;5111298;28;20202;-77
2022/09/15 12:15:01;;;;;;;1.42;1.33;;;;;;;;;;5107518;28;20192;-78
2022/09/15 12:17:33;;;;;;;1.08;1.08;;;;;;;;;;5101077;28;20712;-78
2022/09/15 12:20:03;;;;;;;1.13;1.02;;;;;;;;;;5111033;28;20210;-78
2022/09/15 12:22:34;;;;;;;1.25;1.25;;;;;;;;;;5110446;28;20593;-78
2022/09/15 12:25:05;;;;;;;1.33;0.70;;;;;;;;;;5110869;28;20210;-78
2022/09/15 12:27:32;;;;;;;1.23;1.23;;;;;;;;;;5111550;28;20214;-78
2022/09/15 12:30:00;;;;;;;2.83;1.50;;;;;;;;;;5111047;28;20206;-77
2022/09/15 12:32:28;;;;;;;2.38;1.27;;;;;;;;;;5110430;28;20199;-78
2022/09/15 12:35:03;;;;;;;0.98;0.98;;;;;;;;;;5111231;28;20223;-77
2022/09/15 12:37:35;;;;;;;1.63;1.05;;;;;;;;;;5111236;28;20203;-77
2022/09/15 12:40:06;;;;;;;1.15;1.08;;;;;;;;;;5111166;28;20343;-78
2022/09/15 12:42:34;;;;;;;0.57;0.57;;;;;;;;;;5110890;28;20278;-78
2022/09/15 12:45:03;;;;;;;3.88;1.20;;;;;;;;;;5111150;28;20929;-78
2022/09/15 12:47:32;;;;;;;1.02;1.02;;;;;;;;;;5110679;28;20365;-78
2022/09/15 12:50:04;;;;;;;1.00;1.00;;;;;;;;;;5110860;28;20203;-80
2022/09/15 12:52:31;;;;;;;1.05;1.05;;;;;;;;;;5110752;28;20643;-79
2022/09/15 12:55:00;;;;;;;0.88;0.85;;;;;;;;;;5111015;28;20227;-78
2022/09/15 12:57:31;;;;;;;0.82;0.82;;;;;;;;;;5110697;28;20294;-77
2022/09/15 13:00:25;;;;;;;1.88;1.77;;;;;;;;;;5110778;28;20203;-77
2022/09/15 13:02:52;;;;;;;1.17;0.98;;;;;;;;;;5110863;28;20195;-77
2022/09/15 13:05:49;;;;;;;1.73;0.98;;;;;;;;;;5111007;28;20204;-77
2022/09/15 13:08:46;;;;;;;1.15;1.05;;;;;;;;;;5098507;28;20223;-78
2022/09/15 13:11:16;;;;;;;0.88;0.88;;;;;;;;;;5110522;28;20211;-77
2022/09/15 13:13:49;;;;;;;0.77;0.77;;;;;;;;;;5110587;28;20701;-77
2022/09/15 13:16:19;;;;;;;0.73;0.73;;;;;;;;;;5096361;28;20270;-77
2022/09/15 13:18:47;;;;;;;1.67;1.40;;;;;;;;;;5097097;28;20639;-77
2022/09/15 13:21:15;;;;;;;0.77;0.77;;;;;;;;;;5110776;28;20207;-78
2022/09/15 13:23:44;;;;;;;1.05;0.90;;;;;;;;;;5110703;28;20598;-77
2022/09/15 13:26:17;;;;;;;0.88;0.88;;;;;;;;;;5110022;28;20207;-78
2022/09/15 13:28:47;;;;;;;0.85;0.85;;;;;;;;;;5110657;28;20199;-77
2022/09/15 13:31:21;;;;;;;1.23;0.80;;;;;;;;;;5110705;28;20230;-77
2022/09/15 13:34:10;;;;;;;1.33;0.95;;;;;;;;;;5110708;28;20238;-77
2022/09/15 13:36:43;;;;;;;0.75;0.75;;;;;;;;;;5114057;28;20253;-78
2022/09/15 13:39:30;;;;;;;1.45;1.10;;;;;;;;;;5114599;28;20192;-78
2022/09/15 13:42:26;;;;;;;0.82;0.82;;;;;;;;;;5114259;28;20195;-78
2022/09/15 13:45:36;;;;;;;1.23;1.10;;;;;;;;;;5114180;28;20246;-78
2022/09/15 13:48:23;;;;;;;1.13;1.05;;;;;;;;;;5103233;28;20203;-78
2022/09/15 13:50:56;;;;;;;0.70;0.70;;;;;;;;;;5100066;28;20257;-79
2022/09/15 13:53:41;;;;;;;0.90;0.90;;;;;;;;;;5110406;28;20697;-78
2022/09/15 13:56:14;;;;;;;1.02;1.02;;;;;;;;;;5102912;28;20192;-78
2022/09/15 13:58:43;;;;;;;0.90;0.90;;;;;;;;;;5105335;28;20650;-77
2022/09/15 14:01:13;;;;;;;1.20;1.10;;;;;;;;;;5105848;27;20203;-78
2022/09/15 14:03:43;;;;;;;0.90;0.90;;;;;;;;;;5100573;28;20223;-79
2022/09/15 14:06:13;;;;;;;0.90;0.80;;;;;;;;;;5107265;28;20200;-77
2022/09/15 14:08:40;;;;;;;0.82;0.82;;;;;;;;;;5098522;28;20235;-77
2022/09/15 14:11:09;;;;;;;1.10;1.10;;;;;;;;;;5102822;28;20283;-77
2022/09/15 14:13:37;;;;;;;0.80;0.80;;;;;;;;;;5112927;28;20710;-77
2022/09/15 14:16:07;;;;;;;0.80;0.80;;;;;;;;;;5101561;28;20231;-77
2022/09/15 14:18:44;;;;;;;0.60;0.60;;;;;;;;;;5113078;28;20233;-77
2022/09/15 14:21:16;;;;;;;1.38;1.30;;;;;;;;;;5112365;28;20207;-77
2022/09/15 14:23:45;;;;;;;1.08;1.08;;;;;;;;;;5106596;28;20200;-77
2022/09/15 14:26:13;;;;;;;1.30;1.00;;;;;;;;;;5112663;28;20203;-77
2022/09/15 14:28:41;;;;;;;0.70;0.70;;;;;;;;;;5113285;28;20195;-77
2022/09/15 14:31:08;;;;;;;1.38;1.27;;;;;;;;;;5112514;28;20192;-77
2022/09/15 14:33:37;;;;;;;0.80;0.80;;;;;;;;;;5112464;28;20219;-77
2022/09/15 14:36:14;;;;;;;1.27;1.20;;;;;;;;;;5112620;28;20761;-77
2022/09/15 14:38:40;;;;;;;1.50;1.35;;;;;;;;;;5112864;28;20696;-77
2022/09/15 14:41:18;;;;;;;1.00;1.00;;;;;;;;;;5112669;28;20252;-78
2022/09/15 14:43:45;;;;;;;1.10;1.00;;;;;;;;;;5112390;28;20223;-77
2022/09/15 14:46:12;;;;;;;3.05;1.50;;;;;;;;;;5111750;28;20204;-77
2022/09/15 14:48:39;;;;;;;0.90;0.90;;;;;;;;;;5113028;28;20210;-77
2022/09/15 14:51:12;;;;;;;0.60;0.60;;;;;;;;;;5095400;28;20668;-78
2022/09/15 14:53:41;;;;;;;2.38;1.20;;;;;;;;;;5108859;28;20219;-77
2022/09/15 14:56:10;;;;;;;1.00;1.00;;;;;;;;;;5110614;28;20202;-78
2022/09/15 14:58:41;;;;;;;1.05;1.05;;;;;;;;;;5112191;28;20207;-78
2022/09/15 15:01:12;;;;;;;1.10;1.10;;;;;;;;;;5112058;28;20196;-77
2022/09/15 15:03:42;;;;;;;2.08;1.35;;;;;;;;;;5111837;28;20693;-78